sensor_id;sensor_type;location;lat;lon;timestamp;P1;durP1;ratioP1;P2;durP2;ratioP2
47113;SDS011;32867;51.556;6.832;2023-02-18T00:00:22;22.80;;;17.63;;
47113;SDS011;32867;51.556;6.832;2023-02-18T00:05:23;21.70;;;16.23;;
47113;SDS011;32867;51.556;6.832;2023-02-18T00:10:24;26.05;;;17.45;;
47113;SDS011;32867;51.556;6.832;2023-02-18T00:15:24;25.77;;;18.73;;
47113;SDS011;32867;51.556;6.832;2023-02-18T00:20:25;26.95;;;18.75;;
47113;SDS011;32867;51.556;6.832;2023-02-18T00:25:25;26.27;;;18.55;;
47113;SDS011;32867;51.556;6.832;2023-02-18T00:30:26;20.08;;;15.63;;
47113;SDS011;32867;51.556;6.832;2023-02-18T00:35:29;21.15;;;16.67;;
47113;SDS011;32867;51.556;6.832;2023-02-18T00:40:29;26.45;;;18.20;;
47113;SDS011;32867;51.556;6.832;2023-02-18T00:45:30;24.05;;;17.75;;
47113;SDS011;32867;51.556;6.832;2023-02-18T00:50:30;21.73;;;15.98;;
47113;SDS011;32867;51.556;6.832;2023-02-18T00:55:31;22.42;;;17.23;;
47113;SDS011;32867;51.556;6.832;2023-02-18T01:00:32;22.23;;;16.27;;
47113;SDS011;32867;51.556;6.832;2023-02-18T01:05:33;22.05;;;16.33;;
47113;SDS011;32867;51.556;6.832;2023-02-18T01:10:35;17.65;;;15.30;;
47113;SDS011;32867;51.556;6.832;2023-02-18T01:15:40;22.75;;;16.58;;
47113;SDS011;32867;51.556;6.832;2023-02-18T01:20:43;20.90;;;15.48;;
47113;SDS011;32867;51.556;6.832;2023-02-18T01:25:44;22.80;;;17.05;;
47113;SDS011;32867;51.556;6.832;2023-02-18T01:30:45;25.33;;;17.67;;
47113;SDS011;32867;51.556;6.832;2023-02-18T01:35:46;20.23;;;16.50;;
47113;SDS011;32867;51.556;6.832;2023-02-18T01:40:48;23.05;;;16.38;;
47113;SDS011;32867;51.556;6.832;2023-02-18T01:51:16;26.30;;;17.52;;
47113;SDS011;32867;51.556;6.832;2023-02-18T01:56:27;20.55;;;16.20;;
47113;SDS011;32867;51.556;6.832;2023-02-18T02:01:32;24.25;;;15.82;;
47113;SDS011;32867;51.556;6.832;2023-02-18T02:06:34;21.63;;;16.08;;
47113;SDS011;32867;51.556;6.832;2023-02-18T02:38:11;15.50;;;12.82;;
47113;SDS011;32867;51.556;6.832;2023-02-18T02:59:21;14.77;;;11.27;;
47113;SDS011;32867;51.556;6.832;2023-02-18T03:10:02;13.70;;;10.93;;
47113;SDS011;32867;51.556;6.832;2023-02-18T03:15:24;15.00;;;10.88;;
47113;SDS011;32867;51.556;6.832;2023-02-18T03:20:39;16.17;;;11.77;;
47113;SDS011;32867;51.556;6.832;2023-02-18T03:25:46;15.68;;;11.20;;
47113;SDS011;32867;51.556;6.832;2023-02-18T03:30:49;13.98;;;10.63;;
47113;SDS011;32867;51.556;6.832;2023-02-18T03:35:54;14.85;;;11.45;;
47113;SDS011;32867;51.556;6.832;2023-02-18T03:40:56;15.05;;;11.38;;
47113;SDS011;32867;51.556;6.832;2023-02-18T03:45:57;17.67;;;12.48;;
47113;SDS011;32867;51.556;6.832;2023-02-18T03:50:58;19.88;;;13.52;;
47113;SDS011;32867;51.556;6.832;2023-02-18T03:55:59;18.88;;;13.00;;
47113;SDS011;32867;51.556;6.832;2023-02-18T04:01:00;21.10;;;13.02;;
47113;SDS011;32867;51.556;6.832;2023-02-18T04:06:00;18.45;;;12.85;;
47113;SDS011;32867;51.556;6.832;2023-02-18T04:11:01;14.55;;;11.20;;
47113;SDS011;32867;51.556;6.832;2023-02-18T04:16:04;19.85;;;13.15;;
47113;SDS011;32867;51.556;6.832;2023-02-18T04:21:05;18.15;;;13.68;;
47113;SDS011;32867;51.556;6.832;2023-02-18T04:26:05;18.77;;;13.10;;
47113;SDS011;32867;51.556;6.832;2023-02-18T04:31:06;18.15;;;13.15;;
47113;SDS011;32867;51.556;6.832;2023-02-18T04:36:07;18.40;;;13.60;;
47113;SDS011;32867;51.556;6.832;2023-02-18T04:41:08;19.40;;;14.95;;
47113;SDS011;32867;51.556;6.832;2023-02-18T04:46:09;17.00;;;12.63;;
47113;SDS011;32867;51.556;6.832;2023-02-18T04:51:09;15.55;;;11.32;;
47113;SDS011;32867;51.556;6.832;2023-02-18T04:56:10;16.75;;;13.25;;
47113;SDS011;32867;51.556;6.832;2023-02-18T05:01:11;13.57;;;9.93;;
47113;SDS011;32867;51.556;6.832;2023-02-18T05:06:12;11.05;;;9.20;;
47113;SDS011;32867;51.556;6.832;2023-02-18T05:11:12;9.73;;;6.68;;
47113;SDS011;32867;51.556;6.832;2023-02-18T05:16:13;9.98;;;7.40;;
47113;SDS011;32867;51.556;6.832;2023-02-18T05:21:14;14.18;;;10.75;;
47113;SDS011;32867;51.556;6.832;2023-02-18T05:26:14;11.38;;;8.52;;
47113;SDS011;32867;51.556;6.832;2023-02-18T05:31:15;11.27;;;6.35;;
47113;SDS011;32867;51.556;6.832;2023-02-18T05:36:16;9.38;;;6.22;;
47113;SDS011;32867;51.556;6.832;2023-02-18T05:41:16;6.90;;;3.70;;
47113;SDS011;32867;51.556;6.832;2023-02-18T05:46:17;5.57;;;2.90;;
47113;SDS011;32867;51.556;6.832;2023-02-18T05:51:18;4.65;;;2.97;;
47113;SDS011;32867;51.556;6.832;2023-02-18T05:56:19;4.15;;;2.65;;
47113;SDS011;32867;51.556;6.832;2023-02-18T06:01:19;4.07;;;2.70;;
47113;SDS011;32867;51.556;6.832;2023-02-18T06:06:20;3.95;;;2.30;;
47113;SDS011;32867;51.556;6.832;2023-02-18T06:11:21;3.83;;;2.38;;
47113;SDS011;32867;51.556;6.832;2023-02-18T06:16:21;4.35;;;2.72;;
47113;SDS011;32867;51.556;6.832;2023-02-18T06:21:22;3.45;;;2.38;;
47113;SDS011;32867;51.556;6.832;2023-02-18T06:26:23;4.97;;;2.40;;
47113;SDS011;32867;51.556;6.832;2023-02-18T06:31:24;4.63;;;2.50;;
47113;SDS011;32867;51.556;6.832;2023-02-18T06:36:25;4.10;;;2.72;;
47113;SDS011;32867;51.556;6.832;2023-02-18T06:41:25;3.63;;;2.40;;
47113;SDS011;32867;51.556;6.832;2023-02-18T06:46:26;3.50;;;2.38;;
47113;SDS011;32867;51.556;6.832;2023-02-18T06:51:27;3.72;;;2.20;;
47113;SDS011;32867;51.556;6.832;2023-02-18T06:56:27;4.88;;;2.60;;
47113;SDS011;32867;51.556;6.832;2023-02-18T07:01:28;4.05;;;2.50;;
47113;SDS011;32867;51.556;6.832;2023-02-18T07:06:29;3.80;;;2.45;;
47113;SDS011;32867;51.556;6.832;2023-02-18T07:11:29;3.67;;;2.50;;
47113;SDS011;32867;51.556;6.832;2023-02-18T07:16:30;5.03;;;3.00;;
47113;SDS011;32867;51.556;6.832;2023-02-18T07:21:31;6.70;;;2.88;;
47113;SDS011;32867;51.556;6.832;2023-02-18T07:26:31;5.90;;;2.97;;
47113;SDS011;32867;51.556;6.832;2023-02-18T07:31:32;3.80;;;2.60;;
47113;SDS011;32867;51.556;6.832;2023-02-18T07:36:32;4.45;;;2.50;;
47113;SDS011;32867;51.556;6.832;2023-02-18T07:41:33;3.83;;;2.30;;
47113;SDS011;32867;51.556;6.832;2023-02-18T07:46:34;4.18;;;2.78;;
47113;SDS011;32867;51.556;6.832;2023-02-18T07:51:38;4.55;;;3.05;;
47113;SDS011;32867;51.556;6.832;2023-02-18T07:56:39;5.20;;;3.33;;
47113;SDS011;32867;51.556;6.832;2023-02-18T08:01:42;3.92;;;2.78;;
47113;SDS011;32867;51.556;6.832;2023-02-18T08:06:44;4.25;;;2.75;;
47113;SDS011;32867;51.556;6.832;2023-02-18T08:11:46;4.40;;;2.40;;
47113;SDS011;32867;51.556;6.832;2023-02-18T08:16:47;3.53;;;2.15;;
47113;SDS011;32867;51.556;6.832;2023-02-18T08:21:48;5.07;;;2.05;;
47113;SDS011;32867;51.556;6.832;2023-02-18T08:26:49;4.05;;;1.90;;
47113;SDS011;32867;51.556;6.832;2023-02-18T08:31:49;3.55;;;2.15;;
47113;SDS011;32867;51.556;6.832;2023-02-18T08:36:51;5.15;;;2.45;;
47113;SDS011;32867;51.556;6.832;2023-02-18T08:41:52;6.07;;;2.55;;
47113;SDS011;32867;51.556;6.832;2023-02-18T08:46:52;5.43;;;2.33;;
47113;SDS011;32867;51.556;6.832;2023-02-18T08:51:53;4.80;;;2.50;;
47113;SDS011;32867;51.556;6.832;2023-02-18T08:56:54;4.95;;;2.33;;
47113;SDS011;32867;51.556;6.832;2023-02-18T09:01:56;5.00;;;2.97;;
47113;SDS011;32867;51.556;6.832;2023-02-18T09:06:57;6.43;;;3.10;;
47113;SDS011;32867;51.556;6.832;2023-02-18T09:11:58;9.13;;;2.72;;
47113;SDS011;32867;51.556;6.832;2023-02-18T09:16:58;8.20;;;2.90;;
47113;SDS011;32867;51.556;6.832;2023-02-18T09:21:59;10.52;;;3.40;;
47113;SDS011;32867;51.556;6.832;2023-02-18T09:27:00;11.63;;;3.30;;
47113;SDS011;32867;51.556;6.832;2023-02-18T09:32:00;9.05;;;3.20;;
47113;SDS011;32867;51.556;6.832;2023-02-18T09:37:02;10.10;;;3.58;;
47113;SDS011;32867;51.556;6.832;2023-02-18T09:42:04;11.60;;;3.58;;
47113;SDS011;32867;51.556;6.832;2023-02-18T09:52:18;11.73;;;3.60;;
47113;SDS011;32867;51.556;6.832;2023-02-18T09:57:24;9.18;;;3.28;;
47113;SDS011;32867;51.556;6.832;2023-02-18T10:02:52;13.00;;;4.20;;
47113;SDS011;32867;51.556;6.832;2023-02-18T10:08:04;7.85;;;3.10;;
47113;SDS011;32867;51.556;6.832;2023-02-18T10:13:11;12.35;;;4.10;;
47113;SDS011;32867;51.556;6.832;2023-02-18T10:18:28;6.55;;;3.08;;
47113;SDS011;32867;51.556;6.832;2023-02-18T10:23:35;12.45;;;3.30;;
47113;SDS011;32867;51.556;6.832;2023-02-18T10:28:40;13.38;;;3.72;;
47113;SDS011;32867;51.556;6.832;2023-02-18T10:33:45;11.23;;;3.83;;
47113;SDS011;32867;51.556;6.832;2023-02-18T10:44:19;8.65;;;3.20;;
47113;SDS011;32867;51.556;6.832;2023-02-18T10:54:58;11.98;;;3.78;;
47113;SDS011;32867;51.556;6.832;2023-02-18T11:05:18;11.82;;;3.58;;
47113;SDS011;32867;51.556;6.832;2023-02-18T11:10:33;14.32;;;3.65;;
47113;SDS011;32867;51.556;6.832;2023-02-18T11:15:37;13.60;;;3.42;;
47113;SDS011;32867;51.556;6.832;2023-02-18T11:20:57;11.00;;;3.50;;
47113;SDS011;32867;51.556;6.832;2023-02-18T11:31:05;12.00;;;3.90;;
47113;SDS011;32867;51.556;6.832;2023-02-18T11:36:15;12.40;;;3.60;;
47113;SDS011;32867;51.556;6.832;2023-02-18T11:41:20;8.80;;;3.65;;
47113;SDS011;32867;51.556;6.832;2023-02-18T11:46:54;12.48;;;3.72;;
47113;SDS011;32867;51.556;6.832;2023-02-18T11:52:13;10.85;;;3.72;;
47113;SDS011;32867;51.556;6.832;2023-02-18T11:57:19;11.75;;;4.30;;
47113;SDS011;32867;51.556;6.832;2023-02-18T12:07:33;9.63;;;4.55;;
47113;SDS011;32867;51.556;6.832;2023-02-18T12:12:43;10.10;;;4.28;;
47113;SDS011;32867;51.556;6.832;2023-02-18T12:18:08;7.32;;;3.72;;
47113;SDS011;32867;51.556;6.832;2023-02-18T12:40:05;11.23;;;3.67;;
47113;SDS011;32867;51.556;6.832;2023-02-18T12:51:24;6.45;;;3.72;;
47113;SDS011;32867;51.556;6.832;2023-02-18T12:56:42;6.93;;;4.40;;
47113;SDS011;32867;51.556;6.832;2023-02-18T13:01:56;6.95;;;4.32;;
47113;SDS011;32867;51.556;6.832;2023-02-18T13:12:32;9.10;;;5.28;;
47113;SDS011;32867;51.556;6.832;2023-02-18T13:17:59;7.78;;;4.70;;
47113;SDS011;32867;51.556;6.832;2023-02-18T13:23:02;8.95;;;4.95;;
47113;SDS011;32867;51.556;6.832;2023-02-18T13:28:14;9.40;;;5.32;;
47113;SDS011;32867;51.556;6.832;2023-02-18T13:39:06;10.43;;;6.45;;
47113;SDS011;32867;51.556;6.832;2023-02-18T13:49:23;14.57;;;7.70;;
47113;SDS011;32867;51.556;6.832;2023-02-18T13:59:34;17.25;;;9.05;;
47113;SDS011;32867;51.556;6.832;2023-02-18T14:09:41;13.02;;;9.05;;
47113;SDS011;32867;51.556;6.832;2023-02-18T14:14:43;16.35;;;9.88;;
47113;SDS011;32867;51.556;6.832;2023-02-18T14:19:53;14.70;;;10.07;;
47113;SDS011;32867;51.556;6.832;2023-02-18T14:24:56;16.63;;;9.43;;
47113;SDS011;32867;51.556;6.832;2023-02-18T14:35:38;14.85;;;9.60;;
47113;SDS011;32867;51.556;6.832;2023-02-18T14:40:42;18.13;;;11.40;;
47113;SDS011;32867;51.556;6.832;2023-02-18T14:46:08;18.13;;;11.00;;
47113;SDS011;32867;51.556;6.832;2023-02-18T14:51:15;15.00;;;10.57;;
47113;SDS011;32867;51.556;6.832;2023-02-18T14:56:20;16.75;;;10.70;;
47113;SDS011;32867;51.556;6.832;2023-02-18T15:01:23;14.65;;;10.73;;
47113;SDS011;32867;51.556;6.832;2023-02-18T15:11:37;19.92;;;12.18;;
47113;SDS011;32867;51.556;6.832;2023-02-18T15:16:43;16.48;;;11.55;;
47113;SDS011;32867;51.556;6.832;2023-02-18T15:21:45;18.40;;;12.93;;
47113;SDS011;32867;51.556;6.832;2023-02-18T15:26:48;17.10;;;11.30;;
47113;SDS011;32867;51.556;6.832;2023-02-18T15:31:51;16.85;;;11.30;;
47113;SDS011;32867;51.556;6.832;2023-02-18T15:36:57;15.90;;;12.50;;
47113;SDS011;32867;51.556;6.832;2023-02-18T15:42:05;17.33;;;12.27;;
47113;SDS011;32867;51.556;6.832;2023-02-18T15:47:12;17.02;;;12.55;;
47113;SDS011;32867;51.556;6.832;2023-02-18T15:52:13;14.63;;;10.65;;
47113;SDS011;32867;51.556;6.832;2023-02-18T15:57:14;16.52;;;11.82;;
47113;SDS011;32867;51.556;6.832;2023-02-18T16:02:22;14.68;;;12.00;;
47113;SDS011;32867;51.556;6.832;2023-02-18T16:07:27;18.52;;;11.63;;
47113;SDS011;32867;51.556;6.832;2023-02-18T16:12:30;14.30;;;11.47;;
47113;SDS011;32867;51.556;6.832;2023-02-18T16:17:31;15.55;;;12.13;;
47113;SDS011;32867;51.556;6.832;2023-02-18T16:22:36;16.63;;;12.23;;
47113;SDS011;32867;51.556;6.832;2023-02-18T16:32:56;19.05;;;13.23;;
47113;SDS011;32867;51.556;6.832;2023-02-18T16:37:58;19.17;;;12.57;;
47113;SDS011;32867;51.556;6.832;2023-02-18T16:43:00;18.10;;;12.90;;
47113;SDS011;32867;51.556;6.832;2023-02-18T16:48:17;19.50;;;12.55;;
47113;SDS011;32867;51.556;6.832;2023-02-18T16:53:20;15.75;;;11.70;;
47113;SDS011;32867;51.556;6.832;2023-02-18T16:58:21;17.65;;;12.02;;
47113;SDS011;32867;51.556;6.832;2023-02-18T17:03:22;17.60;;;11.45;;
47113;SDS011;32867;51.556;6.832;2023-02-18T17:08:23;16.60;;;10.07;;
47113;SDS011;32867;51.556;6.832;2023-02-18T17:13:26;17.75;;;11.00;;
47113;SDS011;32867;51.556;6.832;2023-02-18T17:18:28;12.55;;;9.70;;
47113;SDS011;32867;51.556;6.832;2023-02-18T17:23:30;14.27;;;8.98;;
47113;SDS011;32867;51.556;6.832;2023-02-18T17:28:30;14.98;;;9.70;;
47113;SDS011;32867;51.556;6.832;2023-02-18T17:33:31;17.25;;;10.60;;
47113;SDS011;32867;51.556;6.832;2023-02-18T17:38:32;14.68;;;8.40;;
47113;SDS011;32867;51.556;6.832;2023-02-18T17:43:33;13.25;;;9.10;;
47113;SDS011;32867;51.556;6.832;2023-02-18T17:48:34;17.30;;;9.93;;
47113;SDS011;32867;51.556;6.832;2023-02-18T17:53:34;17.13;;;10.65;;
47113;SDS011;32867;51.556;6.832;2023-02-18T17:58:35;15.68;;;9.35;;
47113;SDS011;32867;51.556;6.832;2023-02-18T18:03:36;13.80;;;9.65;;
47113;SDS011;32867;51.556;6.832;2023-02-18T18:08:36;12.63;;;8.60;;
47113;SDS011;32867;51.556;6.832;2023-02-18T18:13:37;12.82;;;8.65;;
47113;SDS011;32867;51.556;6.832;2023-02-18T18:18:38;12.40;;;9.55;;
47113;SDS011;32867;51.556;6.832;2023-02-18T18:23:39;13.43;;;9.88;;
47113;SDS011;32867;51.556;6.832;2023-02-18T18:28:39;14.15;;;10.07;;
47113;SDS011;32867;51.556;6.832;2023-02-18T18:33:40;12.60;;;9.73;;
47113;SDS011;32867;51.556;6.832;2023-02-18T18:38:42;13.15;;;9.05;;
47113;SDS011;32867;51.556;6.832;2023-02-18T18:43:42;14.65;;;10.57;;
47113;SDS011;32867;51.556;6.832;2023-02-18T18:48:43;15.55;;;10.48;;
47113;SDS011;32867;51.556;6.832;2023-02-18T18:53:44;12.40;;;9.55;;
47113;SDS011;32867;51.556;6.832;2023-02-18T18:58:45;13.18;;;9.75;;
47113;SDS011;32867;51.556;6.832;2023-02-18T19:03:46;14.93;;;10.73;;
47113;SDS011;32867;51.556;6.832;2023-02-18T19:08:47;12.77;;;10.57;;
47113;SDS011;32867;51.556;6.832;2023-02-18T19:13:48;11.10;;;9.40;;
47113;SDS011;32867;51.556;6.832;2023-02-18T19:18:48;13.57;;;10.50;;
47113;SDS011;32867;51.556;6.832;2023-02-18T19:23:49;14.80;;;10.23;;
47113;SDS011;32867;51.556;6.832;2023-02-18T19:28:49;17.70;;;11.75;;
47113;SDS011;32867;51.556;6.832;2023-02-18T19:33:50;16.17;;;11.35;;
47113;SDS011;32867;51.556;6.832;2023-02-18T19:38:51;16.17;;;11.90;;
47113;SDS011;32867;51.556;6.832;2023-02-18T19:43:52;17.38;;;12.77;;
47113;SDS011;32867;51.556;6.832;2023-02-18T19:48:53;16.42;;;12.85;;
47113;SDS011;32867;51.556;6.832;2023-02-18T19:53:55;18.90;;;12.85;;
47113;SDS011;32867;51.556;6.832;2023-02-18T19:58:56;16.42;;;12.88;;
47113;SDS011;32867;51.556;6.832;2023-02-18T20:03:58;21.33;;;13.38;;
47113;SDS011;32867;51.556;6.832;2023-02-18T20:08:59;20.88;;;12.85;;
47113;SDS011;32867;51.556;6.832;2023-02-18T20:13:59;14.80;;;11.70;;
47113;SDS011;32867;51.556;6.832;2023-02-18T20:19:00;18.52;;;12.35;;
47113;SDS011;32867;51.556;6.832;2023-02-18T20:24:00;15.43;;;10.90;;
47113;SDS011;32867;51.556;6.832;2023-02-18T20:29:01;14.75;;;11.05;;
47113;SDS011;32867;51.556;6.832;2023-02-18T20:34:02;15.65;;;10.85;;
47113;SDS011;32867;51.556;6.832;2023-02-18T20:39:03;15.63;;;11.57;;
47113;SDS011;32867;51.556;6.832;2023-02-18T20:44:03;16.50;;;12.13;;
47113;SDS011;32867;51.556;6.832;2023-02-18T20:49:05;16.48;;;11.40;;
47113;SDS011;32867;51.556;6.832;2023-02-18T20:54:10;17.00;;;11.77;;
47113;SDS011;32867;51.556;6.832;2023-02-18T20:59:15;16.08;;;10.48;;
47113;SDS011;32867;51.556;6.832;2023-02-18T21:04:18;15.63;;;12.30;;
47113;SDS011;32867;51.556;6.832;2023-02-18T21:09:19;15.82;;;12.48;;
47113;SDS011;32867;51.556;6.832;2023-02-18T21:14:20;17.55;;;12.23;;
47113;SDS011;32867;51.556;6.832;2023-02-18T21:19:21;13.88;;;11.38;;
47113;SDS011;32867;51.556;6.832;2023-02-18T21:24:21;17.88;;;13.18;;
47113;SDS011;32867;51.556;6.832;2023-02-18T21:29:22;17.80;;;12.57;;
47113;SDS011;32867;51.556;6.832;2023-02-18T21:34:23;16.73;;;12.80;;
47113;SDS011;32867;51.556;6.832;2023-02-18T21:39:25;18.33;;;13.70;;
47113;SDS011;32867;51.556;6.832;2023-02-18T21:44:25;20.35;;;15.07;;
47113;SDS011;32867;51.556;6.832;2023-02-18T21:49:26;24.48;;;14.73;;
47113;SDS011;32867;51.556;6.832;2023-02-18T21:54:27;20.52;;;13.88;;
47113;SDS011;32867;51.556;6.832;2023-02-18T21:59:33;20.77;;;15.57;;
47113;SDS011;32867;51.556;6.832;2023-02-18T22:04:35;21.90;;;14.57;;
47113;SDS011;32867;51.556;6.832;2023-02-18T22:09:36;18.73;;;13.50;;
47113;SDS011;32867;51.556;6.832;2023-02-18T22:14:37;18.77;;;13.90;;
47113;SDS011;32867;51.556;6.832;2023-02-18T22:19:38;18.13;;;14.10;;
47113;SDS011;32867;51.556;6.832;2023-02-18T22:24:39;18.77;;;15.05;;
47113;SDS011;32867;51.556;6.832;2023-02-18T22:29:40;17.00;;;12.90;;
47113;SDS011;32867;51.556;6.832;2023-02-18T22:34:40;17.90;;;13.80;;
47113;SDS011;32867;51.556;6.832;2023-02-18T22:39:41;19.70;;;14.85;;
47113;SDS011;32867;51.556;6.832;2023-02-18T22:44:42;17.40;;;14.07;;
47113;SDS011;32867;51.556;6.832;2023-02-18T22:49:42;19.08;;;14.48;;
47113;SDS011;32867;51.556;6.832;2023-02-18T22:54:43;18.58;;;13.88;;
47113;SDS011;32867;51.556;6.832;2023-02-18T22:59:44;18.45;;;13.48;;
47113;SDS011;32867;51.556;6.832;2023-02-18T23:04:45;18.02;;;13.93;;
47113;SDS011;32867;51.556;6.832;2023-02-18T23:09:46;18.70;;;13.75;;
47113;SDS011;32867;51.556;6.832;2023-02-18T23:14:46;15.52;;;13.65;;
47113;SDS011;32867;51.556;6.832;2023-02-18T23:19:50;18.25;;;14.75;;
47113;SDS011;32867;51.556;6.832;2023-02-18T23:24:53;17.80;;;14.00;;
47113;SDS011;32867;51.556;6.832;2023-02-18T23:29:54;15.75;;;13.60;;
47113;SDS011;32867;51.556;6.832;2023-02-18T23:34:55;20.23;;;14.40;;
47113;SDS011;32867;51.556;6.832;2023-02-18T23:39:56;18.67;;;14.18;;
47113;SDS011;32867;51.556;6.832;2023-02-18T23:44:56;17.88;;;14.85;;
47113;SDS011;32867;51.556;6.832;2023-02-18T23:49:57;20.63;;;15.93;;
47113;SDS011;32867;51.556;6.832;2023-02-18T23:54:58;18.33;;;14.23;;
47113;SDS011;32867;51.556;6.832;2023-02-18T23:59:58;18.52;;;15.80;;
